Notice: Radar data often is about one hour behind.
Radar is unstable, so pay attention to the date and time in the image


Latest  Newer  Older  Last 2 hours animation  Current image  Latest image  Summary per 24h (testing)  Summary per 7d (testing) 
Cloud coverage sat images  Infrared sat images 
Real-time lightning map

All time is UTC (add 2 hours in wintertime, 3 hours in DST for Latvia local time)

2019/11/14 08:20 EVRA 140820Z 17015KT 9999 SCT016 BKN028 OVC041 12/09 Q1006 R18/290195 NOSIG
2019/11/14 08:20 EVLA 140820Z AUTO 23010KT 6000 BR BKN006/// OVC011/// 09/09 Q1005
2019/11/14 08:20 EVVA 140820Z AUTO 18017KT 9999 OVC017 12/10 Q1002
2019/11/14 08:20 EYKA 140820Z 16009KT 130V200 9999 OVC016 12/09 Q1009 R08/290095
2019/11/14 08:20 EYPA 140820Z 27005KT 230V310 9999 -RA BKN008 09/08 Q1007 R19/1///95
2019/11/14 08:20 EYSA 140820Z 17012KT 8000 BKN013 BKN020 OVC023 12/10 Q1008 R14L/29//95 R14R/29//95 GRN TEMPO FEW013 OVC021 WHT
2019/11/14 08:20 EYVI 140820Z 17012KT 9000 OVC009 10/09 Q1011 R19/2///95 NOSIG
2019/11/14 07:50 EEKA 140750Z 16013KT 3400 -RA BR OVC006 10/09 Q1002
2019/11/14 07:50 EEKE 140750Z 16014KT 5000 BR BKN018 OVC023 10/09 Q1002
2019/11/14 07:50 EEPU 140750Z 15007KT 100V270 8000 OVC017 11/10 Q1005
2019/11/14 08:20 EETN 140820Z 17011KT 140V210 7000 OVC010 10/08 Q1004 R08/290195 NOSIG
2019/11/14 07:50 EETU 140750Z 17009KT 140V200 8000 BKN015 10/07 Q1008
   RIGA AIRPORT     EVRA               56 55N  023 58E   10   X     T          6 LV
   LIEPAJA INTL     EVLA        26406  56 31N  021 06E    4   X                8 LV
   VENTPILS         EVVA               57 21N  021 33E    6   X                8 LV
   KAUNAS           EYKA               54 54N  023 55E   77   X     T          6 LT
   PALANGA INTL     EYPA               55 55N  021 03E   10   X                6 LT
   SIAULIAI INTL    EYSA               55 54N  023 24E  135   X     T          6 LT
   VILNIUS INTL     EYVI        26730  54 38N  025 17E  197   X     T          6 LT
   KARDLA           EEKA        26116  58 59N  022 50E    4   X                8 EE
   KURESSAARE       EEKE               58 14N  022 31E    4   X                8 EE
   PARNU            EEPU               58 25N  024 28E   14   X                8 EE
   TALLINN          EETN        26038  59 24N  024 49E   40   X     T          8 EE
   TARTU            EETU               58 19N  026 41E   67   X                8 EE

rain/snow radar image from www.meteo.lv and METAR data from weather.noaa.gov